Shinei Maru — JM6456 — position and weather

sailwx.info

Track history (hours):
 
Tides and Currents Weather Stations Pressure Air Temp Water Temp Dewpoint Dewpoint Depression Visibility Wind Speed Wind Dir Waves Ship Positions

Shinei Maru

Last reported at 2018-Jan-21 04:59 UTC. Time now 2018-Jan-21 05:03 UTC.
Position N 34°39' E 135°28'.

Length 41 m.

Type: Tanker. MMSI: 431008799.

Date/timePositionNaut miles runAvg speedWind from/ knotsBaromVisibWave heightAir tempDewpointWater temp
2018-Jan-21 04:59N 34°39' E 135°28'0 0.0
2018-Jan-21 04:29N 34°39' E 135°28'0 0.0
2018-Jan-21 03:59N 34°39' E 135°28'0 0.0
2018-Jan-21 03:29N 34°39' E 135°28'0 0.0
2018-Jan-21 02:59N 34°39' E 135°28'0 0.0
2018-Jan-21 02:29N 34°39' E 135°28'0 0.0
2018-Jan-21 01:59N 34°39' E 135°28'0 0.0
2018-Jan-21 01:29N 34°39' E 135°28'3 5.7
2018-Jan-21 01:01N 34°37' E 135°25'5 9.8
2018-Jan-21 00:31N 34°33' E 135°21'2 3.0
2018-Jan-21 00:00N 34°32' E 135°20'0 0.0
2018-Jan-20 23:30N 34°32' E 135°20'0 0.0
2018-Jan-20 23:00N 34°32' E 135°20'4 7.5
2018-Jan-20 22:30N 34°35' E 135°23'4 8.7
2018-Jan-20 22:01N 34°38' E 135°27'1 2.3
2018-Jan-20 21:29N 34°39' E 135°28'0 0.0
2018-Jan-20 20:59N 34°39' E 135°28'0 0.0
2018-Jan-20 20:29N 34°39' E 135°28'0 0.0
2018-Jan-20 19:59N 34°39' E 135°28'0 0.0
2018-Jan-20 19:29N 34°39' E 135°28'0 0.0
2018-Jan-20 18:59N 34°39' E 135°28'0 0.0
2018-Jan-20 18:29N 34°39' E 135°28'0 0.0
2018-Jan-20 17:59N 34°39' E 135°28'0 0.0
2018-Jan-20 17:29N 34°39' E 135°28'0 0.0
2018-Jan-20 16:59N 34°39' E 135°28'0 0.0
2018-Jan-20 16:29N 34°39' E 135°28'0 0.0
2018-Jan-20 15:59N 34°39' E 135°28'0 0.0
2018-Jan-20 15:29N 34°39' E 135°28'0 0.0
2018-Jan-20 14:59N 34°39' E 135°28'0 0.0
2018-Jan-20 14:29N 34°39' E 135°28'0 0.0
2018-Jan-20 13:59N 34°39' E 135°28'0 0.0
2018-Jan-20 13:29N 34°39' E 135°28'0 0.0
2018-Jan-20 12:59N 34°39' E 135°28'0 0.0
2018-Jan-20 12:29N 34°39' E 135°28'0 0.0
2018-Jan-20 11:59N 34°39' E 135°28'0 0.0
2018-Jan-20 11:29N 34°39' E 135°28'0 0.0
2018-Jan-20 10:59N 34°39' E 135°28'0 0.0
2018-Jan-20 10:29N 34°39' E 135°28'0 0.0
2018-Jan-20 09:59N 34°39' E 135°28'0 0.0
2018-Jan-20 09:29N 34°39' E 135°28'0 0.0
2018-Jan-20 08:59N 34°39' E 135°28'0 0.0
2018-Jan-20 08:29N 34°39' E 135°28'0 0.0
2018-Jan-20 07:59N 34°39' E 135°28'0 0.0
2018-Jan-20 07:29N 34°39' E 135°28'0 0.0
2018-Jan-20 06:59N 34°39' E 135°28'0 0.0
2018-Jan-20 06:29N 34°39' E 135°28'0 0.0
2018-Jan-20 05:59N 34°39' E 135°28'3 6.3
2018-Jan-20 05:30N 34°36' E 135°25'4 8.5
2018-Jan-20 05:00N 34°32' E 135°24'1 1.6
2018-Jan-20 04:29N 34°32' E 135°24'0 0.0
2018-Jan-20 03:59N 34°32' E 135°24'0 0.0
2018-Jan-20 03:29N 34°32' E 135°24'0 0.2
2018-Jan-20 03:00N 34°32' E 135°24'5 8.8
2018-Jan-20 02:29N 34°36' E 135°24'1 2.9
2018-Jan-20 01:59N 34°37' E 135°26'0 0.0
2018-Jan-20 01:29N 34°37' E 135°26'0 0.0
2018-Jan-20 00:59N 34°37' E 135°26'0 0.0
2018-Jan-20 00:29N 34°37' E 135°26'0 0.0
2018-Jan-19 23:59N 34°37' E 135°26'1 1.1
2018-Jan-19 23:30N 34°37' E 135°25'3 5.4
2018-Jan-19 22:59N 34°34' E 135°27'0 1.0
2018-Jan-19 22:30N 34°35' E 135°27'3 6.5
2018-Jan-19 22:00N 34°38' E 135°27'1 1.9
2018-Jan-19 21:30N 34°39' E 135°28'0 0.0
2018-Jan-19 21:00N 34°39' E 135°28'0 0.0
2018-Jan-19 20:30N 34°39' E 135°28'0 0.0
2018-Jan-19 20:00N 34°39' E 135°28'0 0.0
2018-Jan-19 19:30N 34°39' E 135°28'0 0.0
2018-Jan-19 19:00N 34°39' E 135°28'0 0.0
2018-Jan-19 18:30N 34°39' E 135°28'0 0.0
2018-Jan-19 18:00N 34°39' E 135°28'0 0.0
2018-Jan-19 17:30N 34°39' E 135°28'0 0.0
2018-Jan-19 17:00N 34°39' E 135°28'0 0.0
2018-Jan-19 16:30N 34°39' E 135°28'0 0.0
2018-Jan-19 16:00N 34°39' E 135°28'0 0.0
2018-Jan-19 15:30N 34°39' E 135°28'0 0.0
2018-Jan-19 15:00N 34°39' E 135°28'0 0.0
2018-Jan-19 14:30N 34°39' E 135°28'0 0.0
2018-Jan-19 14:00N 34°39' E 135°28'0 0.0
2018-Jan-19 13:30N 34°39' E 135°28'0 0.0
2018-Jan-19 13:00N 34°39' E 135°28'0 0.0
2018-Jan-19 12:30N 34°39' E 135°28'0 0.0
2018-Jan-19 12:00N 34°39' E 135°28'0 0.0
2018-Jan-19 11:30N 34°39' E 135°28'0 0.0
2018-Jan-19 11:00N 34°39' E 135°28'0 0.0
2018-Jan-19 10:30N 34°39' E 135°28'0 0.0
2018-Jan-19 10:00N 34°39' E 135°28'0 0.0
2018-Jan-19 09:30N 34°39' E 135°28'0 0.0
2018-Jan-19 09:00N 34°39' E 135°28'0 0.0
2018-Jan-19 08:30N 34°39' E 135°28'0 0.0
2018-Jan-19 08:00N 34°39' E 135°28'0 0.0
2018-Jan-19 07:30N 34°39' E 135°28'1 2.5
2018-Jan-19 07:00N 34°38' E 135°27'3 6.7
2018-Jan-19 06:29N 34°34' E 135°26'0 0.0
2018-Jan-19 06:00N 34°34' E 135°26'0 0.0
2018-Jan-19 05:29N 34°34' E 135°26'0 0.0
2018-Jan-19 04:59N 34°34' E 135°26'4 7.4
2018-Jan-19 04:30N 34°36' E 135°22'5 9.7
2018-Jan-19 04:01N 34°38' E 135°17'5 9.1
2018-Jan-19 03:30N 34°40' E 135°12'1 1.4
2018-Jan-19 03:00N 34°41' E 135°12'2 3.1
2018-Jan-19 02:30N 34°39' E 135°12'0 0.0
2018-Jan-19 02:01N 34°39' E 135°12'0 0.0
2018-Jan-19 01:31N 34°39' E 135°12'0 0.0
2018-Jan-19 01:01N 34°39' E 135°12'0 0.0
2018-Jan-19 00:30N 34°39' E 135°12'0 0.0
2018-Jan-19 00:00N 34°39' E 135°12'0 0.2
2018-Jan-18 23:30N 34°39' E 135°12'5 9.5
2018-Jan-18 23:00N 34°37' E 135°17'2 3.2
2018-Jan-18 22:28N 34°37' E 135°19'0 0.0
2018-Jan-18 21:58N 34°37' E 135°19'0 0.0
2018-Jan-18 21:28N 34°37' E 135°19'3 5.7
2018-Jan-18 21:00N 34°38' E 135°22'5 9.0
2018-Jan-18 20:30N 34°39' E 135°27'0 0.4
2018-Jan-18 19:58N 34°39' E 135°28'0 0.0
2018-Jan-18 19:28N 34°39' E 135°28'0 0.0
2018-Jan-18 18:58N 34°39' E 135°28'0 0.0
2018-Jan-18 18:28N 34°39' E 135°28'0 0.0
2018-Jan-18 17:55N 34°39' E 135°28'0 0.0
2018-Jan-18 17:28N 34°39' E 135°28'0 0.0
2018-Jan-18 16:58N 34°39' E 135°28'0 0.0
2018-Jan-18 16:28N 34°39' E 135°28'0 0.0
2018-Jan-18 15:58N 34°39' E 135°28'0 0.0
2018-Jan-18 15:28N 34°39' E 135°28'0 0.0
2018-Jan-18 14:58N 34°39' E 135°28'0 0.0
2018-Jan-18 14:28N 34°39' E 135°28'0 0.0
2018-Jan-18 13:58N 34°39' E 135°28'0 0.0
2018-Jan-18 13:28N 34°39' E 135°28'0 0.0
2018-Jan-18 12:58N 34°39' E 135°28'0 0.0
2018-Jan-18 12:28N 34°39' E 135°28'0 0.0
2018-Jan-18 11:58N 34°39' E 135°28'0 0.0
2018-Jan-18 11:28N 34°39' E 135°28'0 0.0
2018-Jan-18 10:58N 34°39' E 135°28'0 0.0
2018-Jan-18 10:28N 34°39' E 135°28'0 0.0
2018-Jan-18 09:58N 34°39' E 135°28'0 0.0
2018-Jan-18 09:28N 34°39' E 135°28'0 0.0
2018-Jan-18 08:58N 34°39' E 135°28'0 0.0
2018-Jan-18 08:28N 34°39' E 135°28'0 0.0
2018-Jan-18 07:58N 34°39' E 135°28'0 0.0
2018-Jan-18 07:28N 34°39' E 135°28'0 0.0
2018-Jan-18 06:58N 34°39' E 135°28'0 0.0
2018-Jan-18 06:28N 34°39' E 135°28'0 0.0
2018-Jan-18 05:58N 34°39' E 135°28'0 0.0
2018-Jan-18 05:31N 34°39' E 135°28'0 0.4
2018-Jan-18 04:58N 34°38' E 135°28'0 0.2
2018-Jan-18 04:29N 34°38' E 135°28'0 0.1
2018-Jan-18 03:58N 34°38' E 135°28'2 4.9
2018-Jan-18 03:30N 34°37' E 135°25'4 8.4
2018-Jan-18 03:00N 34°33' E 135°24'2 2.7
2018-Jan-18 02:26N 34°32' E 135°24'0 0.0
2018-Jan-18 01:59N 34°32' E 135°24'0 0.0
2018-Jan-18 01:29N 34°32' E 135°24'3 5.9
2018-Jan-18 01:00N 34°34' E 135°24'4 3.5
2018-Jan-17 23:58N 34°38' E 135°24'0 0.0
2018-Jan-17 23:55N 34°38' E 135°24'  
2018-Jan-12 14:57N 34°39' E 135°28'0 0.0
2018-Jan-12 14:27N 34°39' E 135°28'0 0.0
2018-Jan-12 14:00N 34°39' E 135°28'0 0.0
2018-Jan-12 13:30N 34°39' E 135°28'0 0.0
2018-Jan-12 13:00N 34°39' E 135°28'0 0.0
2018-Jan-12 12:30N 34°39' E 135°28'0 0.0
2018-Jan-12 12:00N 34°39' E 135°28'0 0.0
2018-Jan-12 11:27N 34°39' E 135°28'0 0.0
2018-Jan-12 11:00N 34°39' E 135°28'0 0.0
2018-Jan-12 10:30N 34°39' E 135°28'0 0.0
2018-Jan-12 09:57N 34°39' E 135°28'0 0.0
2018-Jan-12 09:30N 34°39' E 135°28'0 0.0
2018-Jan-12 09:00N 34°39' E 135°28'0 0.0
2018-Jan-12 08:27N 34°39' E 135°28'0 0.0
2018-Jan-12 08:00N 34°39' E 135°28'0 0.0
2018-Jan-12 07:30N 34°39' E 135°28'0 0.0
2018-Jan-12 06:57N 34°39' E 135°28'2 3.9
2018-Jan-12 06:30N 34°37' E 135°26'5 9.0
2018-Jan-12 06:00N 34°34' E 135°23'0 0.6
2018-Jan-12 05:30N 34°34' E 135°22'0 0.7
2018-Jan-12 05:00N 34°35' E 135°23'4 7.5
2018-Jan-12 04:30N 34°37' E 135°26'2 3.9
2018-Jan-12 04:00N 34°38' E 135°28'0 0.0
2018-Jan-12 03:30N 34°38' E 135°28'1 2.5
2018-Jan-12 03:00N 34°38' E 135°27'3 6.8
2018-Jan-12 02:30N 34°34' E 135°26'0 0.0
2018-Jan-12 02:00N 34°34' E 135°26'0 0.4
2018-Jan-12 01:30N 34°34' E 135°26'4 7.3
2018-Jan-12 00:59N 34°38' E 135°25'0 0.0
2018-Jan-12 00:29N 34°38' E 135°25'0 0.0
2018-Jan-11 23:59N 34°38' E 135°25'0 0.0
2018-Jan-11 23:29N 34°38' E 135°25'0 0.0
2018-Jan-11 22:59N 34°38' E 135°25'2 3.4
2018-Jan-11 22:29N 34°38' E 135°27'1 1.5
2018-Jan-11 22:00N 34°39' E 135°28'0 0.0
2018-Jan-11 21:30N 34°39' E 135°28'0 0.0
2018-Jan-11 21:00N 34°39' E 135°28'0 0.0
2018-Jan-11 20:30N 34°39' E 135°28'0 0.0
2018-Jan-11 20:00N 34°39' E 135°28'0 0.0
2018-Jan-11 19:30N 34°39' E 135°28'0 0.0
2018-Jan-11 19:00N 34°39' E 135°28'0 0.0
2018-Jan-11 18:30N 34°39' E 135°28'0 0.0
2018-Jan-11 18:00N 34°39' E 135°28'0 0.0
2018-Jan-11 17:30N 34°39' E 135°28'0 0.0
2018-Jan-11 16:57N 34°39' E 135°28'0 0.0
2018-Jan-11 16:30N 34°39' E 135°28'0 0.0
2018-Jan-11 16:00N 34°39' E 135°28'0 0.0
2018-Jan-11 15:30N 34°39' E 135°28'0 0.0
2018-Jan-11 14:57N 34°39' E 135°28'0 0.0
2018-Jan-11 14:30N 34°39' E 135°28'0 0.0
2018-Jan-11 13:57N 34°39' E 135°28'0 0.0
2018-Jan-11 13:30N 34°39' E 135°28'0 0.0
2018-Jan-11 12:57N 34°39' E 135°28'0 0.0
2018-Jan-11 12:30N 34°39' E 135°28'0 0.0
2018-Jan-11 12:00N 34°39' E 135°28'0 0.0
2018-Jan-11 11:30N 34°39' E 135°28'0 0.0
2018-Jan-11 11:00N 34°39' E 135°28'0 0.0
2018-Jan-11 10:30N 34°39' E 135°28'0 0.0
2018-Jan-11 10:00N 34°39' E 135°28'0 0.0
2018-Jan-11 09:30N 34°39' E 135°28'0 0.0
2018-Jan-11 09:00N 34°39' E 135°28'0 0.0
2018-Jan-11 08:30N 34°39' E 135°28'0 0.1
2018-Jan-11 08:00N 34°39' E 135°28'4 7.4
2018-Jan-11 07:29N 34°36' E 135°24'3 6.4
2018-Jan-11 07:00N 34°33' E 135°26'1 1.0
2018-Jan-11 06:28N 34°33' E 135°27'1 1.8
2018-Jan-11 06:00N 34°34' E 135°26'1 2.7
2018-Jan-11 05:30N 34°34' E 135°24'1 1.7
2018-Jan-11 05:00N 34°34' E 135°24'  
Track history (hours):
 
Tides and Currents Weather Stations Pressure Air Temp Water Temp Dewpoint Dewpoint Depression Visibility Wind Speed Wind Dir Waves Ship Positions

Shinei Maru

Last reported at 2018-Jan-21 04:59 UTC. Time now 2018-Jan-21 05:03 UTC.
Position N 34°39' E 135°28'.

Length 41 m.

Type: Tanker. MMSI: 431008799.

Date/timePositionNaut miles runAvg speedWind from/ knotsBaromVisibWave heightAir tempDewpointWater temp
2018-Jan-21 04:59N 34°39' E 135°28'0 0.0
2018-Jan-21 04:29N 34°39' E 135°28'0 0.0
2018-Jan-21 03:59N 34°39' E 135°28'0 0.0
2018-Jan-21 03:29N 34°39' E 135°28'0 0.0
2018-Jan-21 02:59N 34°39' E 135°28'0 0.0
2018-Jan-21 02:29N 34°39' E 135°28'0 0.0
2018-Jan-21 01:59N 34°39' E 135°28'0 0.0
2018-Jan-21 01:29N 34°39' E 135°28'3 5.7
2018-Jan-21 01:01N 34°37' E 135°25'5 9.8
2018-Jan-21 00:31N 34°33' E 135°21'2 3.0
2018-Jan-21 00:00N 34°32' E 135°20'0 0.0
2018-Jan-20 23:30N 34°32' E 135°20'0 0.0
2018-Jan-20 23:00N 34°32' E 135°20'4 7.5
2018-Jan-20 22:30N 34°35' E 135°23'4 8.7
2018-Jan-20 22:01N 34°38' E 135°27'1 2.3
2018-Jan-20 21:29N 34°39' E 135°28'0 0.0
2018-Jan-20 20:59N 34°39' E 135°28'0 0.0
2018-Jan-20 20:29N 34°39' E 135°28'0 0.0
2018-Jan-20 19:59N 34°39' E 135°28'0 0.0
2018-Jan-20 19:29N 34°39' E 135°28'0 0.0
2018-Jan-20 18:59N 34°39' E 135°28'0 0.0
2018-Jan-20 18:29N 34°39' E 135°28'0 0.0
2018-Jan-20 17:59N 34°39' E 135°28'0 0.0
2018-Jan-20 17:29N 34°39' E 135°28'0 0.0
2018-Jan-20 16:59N 34°39' E 135°28'0 0.0
2018-Jan-20 16:29N 34°39' E 135°28'0 0.0
2018-Jan-20 15:59N 34°39' E 135°28'0 0.0
2018-Jan-20 15:29N 34°39' E 135°28'0 0.0
2018-Jan-20 14:59N 34°39' E 135°28'0 0.0
2018-Jan-20 14:29N 34°39' E 135°28'0 0.0
2018-Jan-20 13:59N 34°39' E 135°28'0 0.0
2018-Jan-20 13:29N 34°39' E 135°28'0 0.0
2018-Jan-20 12:59N 34°39' E 135°28'0 0.0
2018-Jan-20 12:29N 34°39' E 135°28'0 0.0
2018-Jan-20 11:59N 34°39' E 135°28'0 0.0
2018-Jan-20 11:29N 34°39' E 135°28'0 0.0
2018-Jan-20 10:59N 34°39' E 135°28'0 0.0
2018-Jan-20 10:29N 34°39' E 135°28'0 0.0
2018-Jan-20 09:59N 34°39' E 135°28'0 0.0
2018-Jan-20 09:29N 34°39' E 135°28'0 0.0
2018-Jan-20 08:59N 34°39' E 135°28'0 0.0
2018-Jan-20 08:29N 34°39' E 135°28'0 0.0
2018-Jan-20 07:59N 34°39' E 135°28'0 0.0
2018-Jan-20 07:29N 34°39' E 135°28'0 0.0
2018-Jan-20 06:59N 34°39' E 135°28'0 0.0
2018-Jan-20 06:29N 34°39' E 135°28'0 0.0
2018-Jan-20 05:59N 34°39' E 135°28'3 6.3
2018-Jan-20 05:30N 34°36' E 135°25'4 8.5
2018-Jan-20 05:00N 34°32' E 135°24'1 1.6
2018-Jan-20 04:29N 34°32' E 135°24'0 0.0
2018-Jan-20 03:59N 34°32' E 135°24'0 0.0
2018-Jan-20 03:29N 34°32' E 135°24'0 0.2
2018-Jan-20 03:00N 34°32' E 135°24'5 8.8
2018-Jan-20 02:29N 34°36' E 135°24'1 2.9
2018-Jan-20 01:59N 34°37' E 135°26'0 0.0
2018-Jan-20 01:29N 34°37' E 135°26'0 0.0
2018-Jan-20 00:59N 34°37' E 135°26'0 0.0
2018-Jan-20 00:29N 34°37' E 135°26'0 0.0
2018-Jan-19 23:59N 34°37' E 135°26'1 1.1
2018-Jan-19 23:30N 34°37' E 135°25'3 5.4
2018-Jan-19 22:59N 34°34' E 135°27'0 1.0
2018-Jan-19 22:30N 34°35' E 135°27'3 6.5
2018-Jan-19 22:00N 34°38' E 135°27'1 1.9
2018-Jan-19 21:30N 34°39' E 135°28'0 0.0
2018-Jan-19 21:00N 34°39' E 135°28'0 0.0
2018-Jan-19 20:30N 34°39' E 135°28'0 0.0
2018-Jan-19 20:00N 34°39' E 135°28'0 0.0
2018-Jan-19 19:30N 34°39' E 135°28'0 0.0
2018-Jan-19 19:00N 34°39' E 135°28'0 0.0
2018-Jan-19 18:30N 34°39' E 135°28'0 0.0
2018-Jan-19 18:00N 34°39' E 135°28'0 0.0
2018-Jan-19 17:30N 34°39' E 135°28'0 0.0
2018-Jan-19 17:00N 34°39' E 135°28'0 0.0
2018-Jan-19 16:30N 34°39' E 135°28'0 0.0
2018-Jan-19 16:00N 34°39' E 135°28'0 0.0
2018-Jan-19 15:30N 34°39' E 135°28'0 0.0
2018-Jan-19 15:00N 34°39' E 135°28'0 0.0
2018-Jan-19 14:30N 34°39' E 135°28'0 0.0
2018-Jan-19 14:00N 34°39' E 135°28'0 0.0
2018-Jan-19 13:30N 34°39' E 135°28'0 0.0
2018-Jan-19 13:00N 34°39' E 135°28'0 0.0
2018-Jan-19 12:30N 34°39' E 135°28'0 0.0
2018-Jan-19 12:00N 34°39' E 135°28'0 0.0
2018-Jan-19 11:30N 34°39' E 135°28'0 0.0
2018-Jan-19 11:00N 34°39' E 135°28'0 0.0
2018-Jan-19 10:30N 34°39' E 135°28'0 0.0
2018-Jan-19 10:00N 34°39' E 135°28'0 0.0
2018-Jan-19 09:30N 34°39' E 135°28'0 0.0
2018-Jan-19 09:00N 34°39' E 135°28'0 0.0
2018-Jan-19 08:30N 34°39' E 135°28'0 0.0
2018-Jan-19 08:00N 34°39' E 135°28'0 0.0
2018-Jan-19 07:30N 34°39' E 135°28'1 2.5
2018-Jan-19 07:00N 34°38' E 135°27'3 6.7
2018-Jan-19 06:29N 34°34' E 135°26'0 0.0
2018-Jan-19 06:00N 34°34' E 135°26'0 0.0
2018-Jan-19 05:29N 34°34' E 135°26'0 0.0
2018-Jan-19 04:59N 34°34' E 135°26'4 7.4
2018-Jan-19 04:30N 34°36' E 135°22'5 9.7
2018-Jan-19 04:01N 34°38' E 135°17'5 9.1
2018-Jan-19 03:30N 34°40' E 135°12'1 1.4
2018-Jan-19 03:00N 34°41' E 135°12'2 3.1
2018-Jan-19 02:30N 34°39' E 135°12'0 0.0
2018-Jan-19 02:01N 34°39' E 135°12'0 0.0
2018-Jan-19 01:31N 34°39' E 135°12'0 0.0
2018-Jan-19 01:01N 34°39' E 135°12'0 0.0
2018-Jan-19 00:30N 34°39' E 135°12'0 0.0
2018-Jan-19 00:00N 34°39' E 135°12'0 0.2
2018-Jan-18 23:30N 34°39' E 135°12'5 9.5
2018-Jan-18 23:00N 34°37' E 135°17'2 3.2
2018-Jan-18 22:28N 34°37' E 135°19'0 0.0
2018-Jan-18 21:58N 34°37' E 135°19'0 0.0
2018-Jan-18 21:28N 34°37' E 135°19'3 5.7
2018-Jan-18 21:00N 34°38' E 135°22'5 9.0
2018-Jan-18 20:30N 34°39' E 135°27'0 0.4
2018-Jan-18 19:58N 34°39' E 135°28'0 0.0
2018-Jan-18 19:28N 34°39' E 135°28'0 0.0
2018-Jan-18 18:58N 34°39' E 135°28'0 0.0
2018-Jan-18 18:28N 34°39' E 135°28'0 0.0
2018-Jan-18 17:55N 34°39' E 135°28'0 0.0
2018-Jan-18 17:28N 34°39' E 135°28'0 0.0
2018-Jan-18 16:58N 34°39' E 135°28'0 0.0
2018-Jan-18 16:28N 34°39' E 135°28'0 0.0
2018-Jan-18 15:58N 34°39' E 135°28'0 0.0
2018-Jan-18 15:28N 34°39' E 135°28'0 0.0
2018-Jan-18 14:58N 34°39' E 135°28'0 0.0
2018-Jan-18 14:28N 34°39' E 135°28'0 0.0
2018-Jan-18 13:58N 34°39' E 135°28'0 0.0
2018-Jan-18 13:28N 34°39' E 135°28'0 0.0
2018-Jan-18 12:58N 34°39' E 135°28'0 0.0
2018-Jan-18 12:28N 34°39' E 135°28'0 0.0
2018-Jan-18 11:58N 34°39' E 135°28'0 0.0
2018-Jan-18 11:28N 34°39' E 135°28'0 0.0
2018-Jan-18 10:58N 34°39' E 135°28'0 0.0
2018-Jan-18 10:28N 34°39' E 135°28'0 0.0
2018-Jan-18 09:58N 34°39' E 135°28'0 0.0
2018-Jan-18 09:28N 34°39' E 135°28'0 0.0
2018-Jan-18 08:58N 34°39' E 135°28'0 0.0
2018-Jan-18 08:28N 34°39' E 135°28'0 0.0
2018-Jan-18 07:58N 34°39' E 135°28'0 0.0
2018-Jan-18 07:28N 34°39' E 135°28'0 0.0
2018-Jan-18 06:58N 34°39' E 135°28'0 0.0
2018-Jan-18 06:28N 34°39' E 135°28'0 0.0
2018-Jan-18 05:58N 34°39' E 135°28'0 0.0
2018-Jan-18 05:31N 34°39' E 135°28'0 0.4
2018-Jan-18 04:58N 34°38' E 135°28'0 0.2
2018-Jan-18 04:29N 34°38' E 135°28'0 0.1
2018-Jan-18 03:58N 34°38' E 135°28'2 4.9
2018-Jan-18 03:30N 34°37' E 135°25'4 8.4
2018-Jan-18 03:00N 34°33' E 135°24'2 2.7
2018-Jan-18 02:26N 34°32' E 135°24'0 0.0
2018-Jan-18 01:59N 34°32' E 135°24'0 0.0
2018-Jan-18 01:29N 34°32' E 135°24'3 5.9
2018-Jan-18 01:00N 34°34' E 135°24'4 3.5
2018-Jan-17 23:58N 34°38' E 135°24'0 0.0
2018-Jan-17 23:55N 34°38' E 135°24'  
2018-Jan-12 14:57N 34°39' E 135°28'0 0.0
2018-Jan-12 14:27N 34°39' E 135°28'0 0.0
2018-Jan-12 14:00N 34°39' E 135°28'0 0.0
2018-Jan-12 13:30N 34°39' E 135°28'0 0.0
2018-Jan-12 13:00N 34°39' E 135°28'0 0.0
2018-Jan-12 12:30N 34°39' E 135°28'0 0.0
2018-Jan-12 12:00N 34°39' E 135°28'0 0.0
2018-Jan-12 11:27N 34°39' E 135°28'0 0.0
2018-Jan-12 11:00N 34°39' E 135°28'0 0.0
2018-Jan-12 10:30N 34°39' E 135°28'0 0.0
2018-Jan-12 09:57N 34°39' E 135°28'0 0.0
2018-Jan-12 09:30N 34°39' E 135°28'0 0.0
2018-Jan-12 09:00N 34°39' E 135°28'0 0.0
2018-Jan-12 08:27N 34°39' E 135°28'0 0.0
2018-Jan-12 08:00N 34°39' E 135°28'0 0.0
2018-Jan-12 07:30N 34°39' E 135°28'0 0.0
2018-Jan-12 06:57N 34°39' E 135°28'2 3.9
2018-Jan-12 06:30N 34°37' E 135°26'5 9.0
2018-Jan-12 06:00N 34°34' E 135°23'0 0.6
2018-Jan-12 05:30N 34°34' E 135°22'0 0.7
2018-Jan-12 05:00N 34°35' E 135°23'4 7.5
2018-Jan-12 04:30N 34°37' E 135°26'2 3.9
2018-Jan-12 04:00N 34°38' E 135°28'0 0.0
2018-Jan-12 03:30N 34°38' E 135°28'1 2.5
2018-Jan-12 03:00N 34°38' E 135°27'3 6.8
2018-Jan-12 02:30N 34°34' E 135°26'0 0.0
2018-Jan-12 02:00N 34°34' E 135°26'0 0.4
2018-Jan-12 01:30N 34°34' E 135°26'4 7.3
2018-Jan-12 00:59N 34°38' E 135°25'0 0.0
2018-Jan-12 00:29N 34°38' E 135°25'0 0.0
2018-Jan-11 23:59N 34°38' E 135°25'0 0.0
2018-Jan-11 23:29N 34°38' E 135°25'0 0.0
2018-Jan-11 22:59N 34°38' E 135°25'2 3.4
2018-Jan-11 22:29N 34°38' E 135°27'1 1.5
2018-Jan-11 22:00N 34°39' E 135°28'0 0.0
2018-Jan-11 21:30N 34°39' E 135°28'0 0.0
2018-Jan-11 21:00N 34°39' E 135°28'0 0.0
2018-Jan-11 20:30N 34°39' E 135°28'0 0.0
2018-Jan-11 20:00N 34°39' E 135°28'0 0.0
2018-Jan-11 19:30N 34°39' E 135°28'0 0.0
2018-Jan-11 19:00N 34°39' E 135°28'0 0.0
2018-Jan-11 18:30N 34°39' E 135°28'0 0.0
2018-Jan-11 18:00N 34°39' E 135°28'0 0.0
2018-Jan-11 17:30N 34°39' E 135°28'0 0.0
2018-Jan-11 16:57N 34°39' E 135°28'0 0.0
2018-Jan-11 16:30N 34°39' E 135°28'0 0.0
2018-Jan-11 16:00N 34°39' E 135°28'0 0.0
2018-Jan-11 15:30N 34°39' E 135°28'0 0.0
2018-Jan-11 14:57N 34°39' E 135°28'0 0.0
2018-Jan-11 14:30N 34°39' E 135°28'0 0.0
2018-Jan-11 13:57N 34°39' E 135°28'0 0.0
2018-Jan-11 13:30N 34°39' E 135°28'0 0.0
2018-Jan-11 12:57N 34°39' E 135°28'0 0.0
2018-Jan-11 12:30N 34°39' E 135°28'0 0.0
2018-Jan-11 12:00N 34°39' E 135°28'0 0.0
2018-Jan-11 11:30N 34°39' E 135°28'0 0.0
2018-Jan-11 11:00N 34°39' E 135°28'0 0.0
2018-Jan-11 10:30N 34°39' E 135°28'0 0.0
2018-Jan-11 10:00N 34°39' E 135°28'0 0.0
2018-Jan-11 09:30N 34°39' E 135°28'0 0.0
2018-Jan-11 09:00N 34°39' E 135°28'0 0.0
2018-Jan-11 08:30N 34°39' E 135°28'0 0.1
2018-Jan-11 08:00N 34°39' E 135°28'4 7.4
2018-Jan-11 07:29N 34°36' E 135°24'3 6.4
2018-Jan-11 07:00N 34°33' E 135°26'1 1.0
2018-Jan-11 06:28N 34°33' E 135°27'1 1.8
2018-Jan-11 06:00N 34°34' E 135°26'1 2.7
2018-Jan-11 05:30N 34°34' E 135°24'1 1.7
2018-Jan-11 05:00N 34°34' E 135°24'  

Dump ship's entire track history